createdAt,value
2023-04-01T00:02:13.434Z,99932.59
2023-04-01T00:04:42.967Z,99921.81
2023-04-01T00:07:12.451Z,99925.22
2023-04-01T00:09:48.664Z,99920.81
2023-04-01T00:12:19.147Z,99922.78
2023-04-01T00:14:47.109Z,99919.97
2023-04-01T00:17:17.389Z,99918.03
2023-04-01T00:19:45.887Z,99934.09
2023-04-01T00:22:14.092Z,99935.56
2023-04-01T00:24:42.630Z,99930.97
2023-04-01T00:27:10.977Z,99934.38
2023-04-01T00:29:39.161Z,99923.81
2023-04-01T00:32:16.716Z,99941.47
2023-04-01T00:34:49.675Z,99932.59
2023-04-01T00:37:17.944Z,99931.97
2023-04-01T00:39:50.174Z,99932.03
2023-04-01T00:42:19.295Z,99936.53
2023-04-01T00:44:52.265Z,99929.16
2023-04-01T00:47:21.179Z,99937.19
2023-04-01T00:49:53.913Z,99933.66
2023-04-01T00:52:24.798Z,99938.25
2023-04-01T00:54:58.401Z,99937.53
2023-04-01T00:57:31.709Z,99943.09
2023-04-01T01:00:01.055Z,99942.22
2023-04-01T01:02:29.765Z,99948.34
2023-04-01T01:04:58.608Z,99943.72
2023-04-01T01:07:59.521Z,99935.38
2023-04-01T01:10:35.730Z,99938.59
2023-04-01T01:13:23.577Z,99939.56
2023-04-01T01:16:15.835Z,99942.59
2023-04-01T01:18:52.038Z,99947.63
2023-04-01T01:22:08.862Z,99951.69
2023-04-01T01:25:02.545Z,99945.38
2023-04-01T01:27:32.139Z,99947.41
2023-04-01T01:30:07.892Z,99951.28
2023-04-01T01:32:57.899Z,99946.78
2023-04-01T01:35:41.460Z,99948.69
2023-04-01T01:38:13.154Z,99946.25
2023-04-01T01:40:44.811Z,99936.72
2023-04-01T01:43:19.863Z,99942.41
2023-04-01T01:45:51.137Z,99929.34
2023-04-01T01:48:19.408Z,99946.66
2023-04-01T01:50:48.401Z,99943.44
2023-04-01T01:53:17.022Z,99937.66
2023-04-01T01:55:48.070Z,99938.09
2023-04-01T01:58:20.772Z,99935.94
2023-04-01T02:00:58.972Z,99924.91
2023-04-01T02:03:28.972Z,99928.88
2023-04-01T02:05:58.801Z,99935.38
2023-04-01T02:08:47.851Z,99938.56
2023-04-01T02:11:24.528Z,99934.38
2023-04-01T02:14:02.924Z,99932.22
2023-04-01T02:16:44.518Z,99935.00
2023-04-01T02:19:15.299Z,99936.16
2023-04-01T02:21:50.608Z,99937.88
2023-04-01T02:24:19.365Z,99940.66
2023-04-01T02:26:49.536Z,99944.19
2023-04-01T02:29:19.925Z,99943.50
2023-04-01T02:31:48.528Z,99948.75
2023-04-01T02:34:17.011Z,99949.72
2023-04-01T02:36:49.008Z,99950.88
2023-04-01T02:39:18.325Z,99958.78
2023-04-01T02:41:47.397Z,99963.34
2023-04-01T02:44:23.237Z,99959.94
2023-04-01T02:46:54.496Z,99961.75
2023-04-01T02:49:23.214Z,99961.84
2023-04-01T02:51:53.238Z,99958.53
2023-04-01T02:54:22.113Z,99957.84
2023-04-01T02:56:50.243Z,99954.34
2023-04-01T02:59:19.136Z,99967.13
2023-04-01T03:02:08.639Z,99947.72
2023-04-01T03:04:37.144Z,99959.31
2023-04-01T03:07:07.125Z,99961.97
2023-04-01T03:09:35.820Z,99961.97
2023-04-01T03:12:04.157Z,99964.75
2023-04-01T03:14:36.840Z,99954.09
2023-04-01T03:17:05.187Z,99962.94
2023-04-01T03:19:35.259Z,99964.75
2023-04-01T03:22:03.445Z,99963.31
2023-04-01T03:24:32.593Z,99975.22
2023-04-01T03:27:02.629Z,99972.25
2023-04-01T03:29:31.051Z,99970.00
2023-04-01T03:32:00.244Z,99976.09
2023-04-01T03:34:28.597Z,99976.84
2023-04-01T03:36:56.776Z,99974.94
2023-04-01T03:39:28.030Z,99971.63
2023-04-01T03:41:58.737Z,99976.75
2023-04-01T03:44:26.869Z,99983.16
2023-04-01T03:46:55.206Z,99987.41
2023-04-01T03:49:23.224Z,99976.59
2023-04-01T03:51:51.188Z,99979.16
2023-04-01T03:54:21.396Z,99972.09
2023-04-01T03:56:49.728Z,99979.41
2023-04-01T03:59:18.089Z,99970.56
2023-04-01T04:01:49.177Z,99975.63
2023-04-01T04:04:20.575Z,99967.44
2023-04-01T04:06:53.784Z,99971.31
2023-04-01T04:09:22.514Z,99969.25
2023-04-01T04:11:51.488Z,99978.56
2023-04-01T04:14:19.811Z,99985.63
2023-04-01T04:16:48.056Z,99980.47
2023-04-01T04:19:18.295Z,99993.03
2023-04-01T04:21:46.822Z,99980.66
2023-04-01T04:24:18.633Z,99994.72
2023-04-01T04:26:48.083Z,99986.34
2023-04-01T04:29:16.051Z,99996.34
2023-04-01T04:31:47.055Z,99991.13
2023-04-01T04:34:15.150Z,99997.09
2023-04-01T04:36:44.442Z,100005.09
2023-04-01T04:39:13.074Z,100004.72
2023-04-01T04:41:41.477Z,99997.25
2023-04-01T04:44:12.608Z,99999.94
2023-04-01T04:46:40.930Z,100004.91
2023-04-01T04:49:08.960Z,100004.31
2023-04-01T04:51:38.266Z,100012.91
2023-04-01T04:54:07.628Z,100008.19
2023-04-01T04:56:37.246Z,100007.88
2023-04-01T04:59:05.174Z,100007.38
2023-04-01T05:01:34.907Z,100010.81
2023-04-01T05:04:03.155Z,100006.56
2023-04-01T05:06:32.711Z,100008.72
2023-04-01T05:09:00.834Z,100011.09
2023-04-01T05:11:29.325Z,100022.44
2023-04-01T05:13:57.812Z,100018.38
2023-04-01T05:16:32.904Z,100016.56
2023-04-01T05:19:02.335Z,100026.50
2023-04-01T05:21:31.397Z,100021.09
2023-04-01T05:24:01.301Z,100021.50
2023-04-01T05:26:34.154Z,100028.34
2023-04-01T05:29:02.452Z,100029.66
2023-04-01T05:31:35.479Z,100031.03
2023-04-01T05:34:04.351Z,100029.13
2023-04-01T05:36:35.021Z,100031.25
2023-04-01T05:39:04.632Z,100034.91
2023-04-01T05:41:32.774Z,100030.63
2023-04-01T05:44:00.719Z,100034.81
2023-04-01T05:46:29.190Z,100027.13
2023-04-01T05:49:01.140Z,100033.00
2023-04-01T05:51:29.431Z,100029.22
2023-04-01T05:53:57.779Z,100029.66
2023-04-01T05:56:26.347Z,100031.88
2023-04-01T05:58:55.832Z,100042.31
2023-04-01T06:01:25.342Z,100041.09
2023-04-01T06:03:55.404Z,100041.72
2023-04-01T06:06:28.973Z,100041.31
2023-04-01T06:08:59.436Z,100045.81
2023-04-01T06:12:10.907Z,100041.00
2023-04-01T06:14:52.763Z,100050.19
2023-04-01T06:17:40.010Z,100045.69
2023-04-01T06:20:46.527Z,100043.31
2023-04-01T06:23:35.804Z,100040.66
2023-04-01T06:26:43.862Z,100049.00
2023-04-01T06:29:30.256Z,100054.75
2023-04-01T06:32:24.286Z,100049.00
2023-04-01T06:35:04.838Z,100050.91
2023-04-01T06:37:51.528Z,100052.69
2023-04-01T06:40:55.141Z,100062.69
2023-04-01T06:44:10.661Z,100057.31
2023-04-01T06:46:41.908Z,100059.78
2023-04-01T06:49:31.097Z,100063.53
2023-04-01T06:52:14.544Z,100059.47
2023-04-01T06:54:48.113Z,100064.47
2023-04-01T06:57:31.849Z,100061.00
2023-04-01T07:00:02.261Z,100060.63
2023-04-01T07:02:35.302Z,100056.44
2023-04-01T07:05:04.456Z,100057.09
2023-04-01T07:07:38.869Z,100071.50
2023-04-01T07:10:20.167Z,100058.00
2023-04-01T07:12:51.693Z,100072.16
2023-04-01T07:15:31.806Z,100065.28
2023-04-01T07:18:41.168Z,100066.59
2023-04-01T07:21:22.247Z,100065.41
2023-04-01T07:23:55.569Z,100073.50
2023-04-01T07:26:26.870Z,100061.53
2023-04-01T07:29:01.973Z,100072.88
2023-04-01T07:31:56.699Z,100060.31
2023-04-01T07:34:30.204Z,100073.22
2023-04-01T07:37:15.882Z,100060.47
2023-04-01T07:39:56.699Z,100064.56
2023-04-01T07:42:56.537Z,100051.69
2023-04-01T07:45:35.480Z,100064.53
2023-04-01T07:48:32.737Z,100059.59
2023-04-01T07:51:22.726Z,100058.97
2023-04-01T07:54:29.290Z,100057.78
2023-04-01T07:57:05.528Z,100058.84
2023-04-01T08:00:06.818Z,100061.81
2023-04-01T08:02:51.918Z,100059.13
2023-04-01T08:05:32.352Z,100067.13
2023-04-01T08:08:10.044Z,100062.75
2023-04-01T08:11:01.372Z,100076.75
2023-04-01T08:13:37.349Z,100076.75
2023-04-01T08:16:15.688Z,100072.41
2023-04-01T08:19:03.028Z,100074.09
2023-04-01T08:22:00.159Z,100074.81
2023-04-01T08:24:47.091Z,100078.16
2023-04-01T08:27:43.473Z,100074.38
2023-04-01T08:30:21.918Z,100073.41
2023-04-01T08:33:01.268Z,100072.34
2023-04-01T08:36:01.211Z,100072.09
2023-04-01T08:38:33.702Z,100072.00
2023-04-01T08:41:26.631Z,100079.78
2023-04-01T08:44:34.291Z,100065.34
2023-04-01T08:47:24.091Z,100074.53
2023-04-01T08:49:58.907Z,100068.31
2023-04-01T08:52:46.796Z,100067.81
2023-04-01T08:55:23.664Z,100069.16
2023-04-01T08:57:55.473Z,100077.31
2023-04-01T09:00:43.717Z,100074.25
2023-04-01T09:03:41.977Z,100057.16
2023-04-01T09:06:30.370Z,100058.44
2023-04-01T09:09:18.818Z,100062.63
2023-04-01T09:12:12.681Z,100061.22
2023-04-01T09:15:19.822Z,100067.78
2023-04-01T09:17:51.420Z,100073.81
2023-04-01T09:20:51.116Z,100078.59
2023-04-01T09:23:35.895Z,100071.56
2023-04-01T09:26:31.485Z,100073.56
2023-04-01T09:29:30.286Z,100069.56
2023-04-01T09:32:41.717Z,100074.25
2023-04-01T09:35:29.970Z,100066.69
2023-04-01T09:38:10.261Z,100066.53
2023-04-01T09:40:55.800Z,100066.47
2023-04-01T09:43:43.276Z,100066.44
2023-04-01T09:46:31.970Z,100073.16
2023-04-01T09:49:08.118Z,100070.63
2023-04-01T09:51:47.563Z,100075.75
2023-04-01T09:54:29.194Z,100083.47
2023-04-01T09:57:34.584Z,100078.16
2023-04-01T10:00:33.752Z,100091.31
2023-04-01T10:03:17.372Z,100083.16
2023-04-01T10:05:52.093Z,100081.22
2023-04-01T10:08:39.367Z,100073.78
2023-04-01T10:11:30.010Z,100074.63
2023-04-01T10:14:31.643Z,100063.28
2023-04-01T10:17:20.327Z,100077.00
2023-04-01T10:20:18.747Z,100074.66
2023-04-01T10:23:11.800Z,100071.72
2023-04-01T10:26:04.978Z,100060.19
2023-04-01T10:28:57.797Z,100062.25
2023-04-01T10:31:55.751Z,100059.91
2023-04-01T10:34:41.328Z,100057.53
2023-04-01T10:37:48.614Z,100060.75
2023-04-01T10:40:35.561Z,100065.66
2023-04-01T10:43:22.193Z,100062.31
2023-04-01T10:46:37.591Z,100071.69
2023-04-01T10:49:23.975Z,100055.91
2023-04-01T10:52:00.464Z,100049.28
2023-04-01T10:55:23.882Z,100049.53
2023-04-01T10:58:35.301Z,100040.88
2023-04-01T11:01:41.326Z,100050.19
2023-04-01T11:04:34.437Z,100049.41
2023-04-01T11:07:13.089Z,100055.13
2023-04-01T11:10:20.239Z,100045.16
2023-04-01T11:13:27.884Z,100049.00
2023-04-01T11:16:18.374Z,100043.88
2023-04-01T11:19:15.294Z,100046.66
2023-04-01T11:22:12.111Z,100051.97
2023-04-01T11:24:54.813Z,100050.94
2023-04-01T11:28:00.220Z,100063.59
2023-04-01T11:30:39.401Z,100047.41
2023-04-01T11:33:44.669Z,100043.72
2023-04-01T11:36:36.855Z,100049.25
2023-04-01T11:39:44.592Z,100050.81
2023-04-01T11:42:21.417Z,100057.66
2023-04-01T11:44:59.329Z,100056.56
2023-04-01T11:47:54.134Z,100062.38
2023-04-01T11:50:35.199Z,100056.16
2023-04-01T11:53:19.984Z,100052.78
2023-04-01T11:56:15.724Z,100052.63
2023-04-01T11:59:02.088Z,100057.84
2023-04-01T12:02:01.185Z,100053.66
2023-04-01T12:05:05.757Z,100057.88
2023-04-01T12:07:54.183Z,100054.34
2023-04-01T12:10:50.388Z,100056.00
2023-04-01T12:13:56.880Z,100058.44
2023-04-01T12:16:56.875Z,100060.16
2023-04-01T12:19:41.566Z,100055.53
2023-04-01T12:22:28.207Z,100052.41
2023-04-01T12:25:21.306Z,100048.03
2023-04-01T12:28:09.728Z,100055.91
2023-04-01T12:30:47.615Z,100048.84
2023-04-01T12:33:25.438Z,100053.50
2023-04-01T12:36:27.635Z,100054.34
2023-04-01T12:39:24.450Z,100052.59
2023-04-01T12:42:19.034Z,100042.69
2023-04-01T12:44:47.217Z,100045.13
2023-04-01T12:47:57.235Z,100041.66
2023-04-01T12:50:48.936Z,100043.34
2023-04-01T12:53:41.685Z,100043.81
2023-04-01T12:56:41.423Z,100047.03
2023-04-01T12:59:30.408Z,100043.56
2023-04-01T13:02:06.777Z,100045.34
2023-04-01T13:04:50.034Z,100041.28
2023-04-01T13:07:32.450Z,100045.41
2023-04-01T13:10:21.263Z,100035.94
2023-04-01T13:13:29.149Z,100034.97
2023-04-01T13:16:13.308Z,100032.94
2023-04-01T13:19:12.268Z,100028.03
2023-04-01T13:21:52.974Z,100034.44
2023-04-01T13:24:43.369Z,100026.97
2023-04-01T13:27:23.710Z,100026.13
2023-04-01T13:30:26.087Z,100022.56
2023-04-01T13:33:15.867Z,100022.88
2023-04-01T13:36:03.136Z,100027.94
2023-04-01T13:39:02.180Z,100029.94
2023-04-01T13:41:49.259Z,100030.22
2023-04-01T13:44:36.850Z,100038.59
2023-04-01T13:47:30.565Z,100032.31
2023-04-01T13:50:19.388Z,100036.56
2023-04-01T13:53:06.732Z,100030.28
2023-04-01T13:55:42.156Z,100043.94
2023-04-01T13:58:22.360Z,100039.63
2023-04-01T14:01:22.209Z,100036.28
2023-04-01T14:04:21.156Z,100019.84
2023-04-01T14:07:07.789Z,100027.88
2023-04-01T14:09:55.224Z,100023.22
2023-04-01T14:12:38.149Z,100037.44
2023-04-01T14:15:25.880Z,100022.88
2023-04-01T14:18:21.659Z,100029.31
2023-04-01T14:21:34.141Z,100026.75
2023-04-01T14:24:11.250Z,100016.50
2023-04-01T14:27:01.440Z,100021.44
2023-04-01T14:29:47.093Z,100028.13
2023-04-01T14:32:38.821Z,100022.09
2023-04-01T14:35:51.671Z,100016.47
2023-04-01T14:38:41.748Z,100025.84
2023-04-01T14:41:29.724Z,100015.53
2023-04-01T14:44:35.250Z,100017.66
2023-04-01T14:47:13.395Z,100009.88
2023-04-01T14:49:48.177Z,100008.22
2023-04-01T14:52:27.108Z,100019.19
2023-04-01T14:54:56.442Z,100012.72
2023-04-01T14:57:27.108Z,100013.56
2023-04-01T15:00:01.066Z,100012.13
2023-04-01T15:03:13.263Z,100016.00
2023-04-01T15:05:51.868Z,100025.94
2023-04-01T15:08:29.277Z,100019.94
2023-04-01T15:11:32.718Z,100018.19
2023-04-01T15:14:31.386Z,100018.47
2023-04-01T15:17:18.518Z,100013.59
2023-04-01T15:20:02.660Z,100014.16
2023-04-01T15:22:41.955Z,100000.47
2023-04-01T15:25:44.170Z,99999.00
2023-04-01T15:28:46.006Z,99995.06
2023-04-01T15:31:35.247Z,99994.88
2023-04-01T15:34:19.005Z,100004.06
2023-04-01T15:37:38.945Z,99999.47
2023-04-01T15:40:38.141Z,100005.63
2023-04-01T15:43:40.272Z,100001.97
2023-04-01T15:46:29.489Z,100003.13
2023-04-01T15:49:10.900Z,100006.22
2023-04-01T15:52:00.686Z,100008.31
2023-04-01T15:54:53.760Z,100003.72
2023-04-01T15:57:28.914Z,100004.06
2023-04-01T16:00:26.540Z,99998.56
2023-04-01T16:03:50.054Z,100010.94
2023-04-01T16:06:53.491Z,100026.13
2023-04-01T16:09:50.010Z,100037.25
2023-04-01T16:12:35.702Z,100033.25
2023-04-01T16:15:16.550Z,100039.47
2023-04-01T16:17:57.746Z,100038.84
2023-04-01T16:20:54.761Z,100037.16
2023-04-01T16:23:48.202Z,100037.03
2023-04-01T16:26:24.385Z,100022.16
2023-04-01T16:29:20.764Z,100021.66
2023-04-01T16:31:53.762Z,100018.97
2023-04-01T16:34:32.390Z,100019.97
2023-04-01T16:37:17.096Z,100023.25
2023-04-01T16:40:05.999Z,100021.69
2023-04-01T16:42:50.306Z,100019.84
2023-04-01T16:45:30.272Z,100031.44
2023-04-01T16:48:17.619Z,100029.50
2023-04-01T16:50:50.568Z,100039.03
2023-04-01T16:53:59.018Z,100035.22
2023-04-01T16:56:38.598Z,100038.03
2023-04-01T16:59:25.439Z,100039.97
2023-04-01T17:02:08.822Z,100048.03
2023-04-01T17:04:56.968Z,100049.25
2023-04-01T17:07:44.212Z,100044.59
2023-04-01T17:10:59.351Z,100032.06
2023-04-01T17:13:59.083Z,100042.19
2023-04-01T17:16:43.030Z,100048.66
2023-04-01T17:19:24.247Z,100051.47
2023-04-01T17:22:19.170Z,100050.22
2023-04-01T17:25:25.899Z,100051.44
2023-04-01T17:28:22.914Z,100071.44
2023-04-01T17:31:00.213Z,100065.81
2023-04-01T17:33:46.628Z,100060.69
2023-04-01T17:36:22.966Z,100065.16
2023-04-01T17:39:34.768Z,100070.13
2023-04-01T17:42:16.579Z,100076.25
2023-04-01T17:45:32.996Z,100066.31
2023-04-01T17:48:03.911Z,100071.75
2023-04-01T17:51:26.088Z,100068.78
2023-04-01T17:54:06.330Z,100064.72
2023-04-01T17:56:47.006Z,100068.47
2023-04-01T17:59:26.983Z,100063.69
2023-04-01T18:02:07.293Z,100071.38
2023-04-01T18:05:02.679Z,100080.84
2023-04-01T18:07:51.385Z,100078.50
2023-04-01T18:10:36.606Z,100084.41
2023-04-01T18:13:30.436Z,100087.75
2023-04-01T18:16:23.539Z,100084.44
2023-04-01T18:19:28.149Z,100080.34
2023-04-01T18:22:25.211Z,100073.63
2023-04-01T18:25:02.813Z,100065.06
2023-04-01T18:27:35.410Z,100067.09
2023-04-01T18:30:15.278Z,100066.66
2023-04-01T18:32:51.780Z,100073.53
2023-04-01T18:36:03.950Z,100062.81
2023-04-01T18:38:36.231Z,100062.09
2023-04-01T18:41:34.872Z,100066.16
2023-04-01T18:44:22.115Z,100064.88
2023-04-01T18:47:20.131Z,100069.03
2023-04-01T18:50:08.490Z,100069.03
2023-04-01T18:52:42.332Z,100064.63
2023-04-01T18:55:41.341Z,100062.50
2023-04-01T18:58:39.201Z,100050.75
2023-04-01T19:02:01.430Z,100056.09
2023-04-01T19:04:41.701Z,100058.22
2023-04-01T19:07:35.090Z,100055.22
2023-04-01T19:10:19.608Z,100056.38
2023-04-01T19:13:03.242Z,100058.72
2023-04-01T19:15:49.922Z,100059.38
2023-04-01T19:19:03.706Z,100068.03
2023-04-01T19:21:35.564Z,100072.41
2023-04-01T19:24:38.336Z,100067.50
2023-04-01T19:27:31.001Z,100070.91
2023-04-01T19:30:36.599Z,100069.28
2023-04-01T19:33:19.999Z,100065.00
2023-04-01T19:36:02.033Z,100067.97
2023-04-01T19:38:44.610Z,100063.03
2023-04-01T19:41:21.868Z,100066.53
2023-04-01T19:44:17.643Z,100061.38
2023-04-01T19:46:51.173Z,100055.50
2023-04-01T19:49:28.307Z,100058.69
2023-04-01T19:52:31.801Z,100059.50
2023-04-01T19:55:16.414Z,100072.44
2023-04-01T19:58:07.236Z,100056.72
2023-04-01T20:00:45.941Z,100070.00
2023-04-01T20:03:32.669Z,100064.44
2023-04-01T20:06:38.315Z,100067.97
2023-04-01T20:09:40.854Z,100066.34
2023-04-01T20:12:28.292Z,100070.63
2023-04-01T20:15:05.758Z,100063.44
2023-04-01T20:17:38.091Z,100071.66
2023-04-01T20:20:12.185Z,100072.84
2023-04-01T20:22:47.876Z,100076.91
2023-04-01T20:25:29.118Z,100077.22
2023-04-01T20:28:05.880Z,100075.06
2023-04-01T20:30:46.206Z,100078.69
2023-04-01T20:33:49.857Z,100076.22
2023-04-01T20:36:37.517Z,100078.34
2023-04-01T20:39:12.814Z,100079.41
2023-04-01T20:41:52.986Z,100077.78
2023-04-01T20:44:51.916Z,100075.41
2023-04-01T20:48:00.005Z,100072.66
2023-04-01T20:50:50.404Z,100082.56
2023-04-01T20:53:24.292Z,100066.72
2023-04-01T20:56:42.572Z,100068.16
2023-04-01T20:59:44.858Z,100064.63
2023-04-01T21:02:44.090Z,100061.97
2023-04-01T21:05:31.905Z,100056.16
2023-04-01T21:08:35.294Z,100064.66
2023-04-01T21:11:27.548Z,100050.38
2023-04-01T21:14:21.968Z,100063.63
2023-04-01T21:17:24.965Z,100065.63
2023-04-01T21:20:21.016Z,100055.63
2023-04-01T21:23:34.053Z,100051.78
2023-04-01T21:26:24.070Z,100046.34
2023-04-01T21:29:32.178Z,100051.66
2023-04-01T21:32:12.589Z,100055.28
2023-04-01T21:35:02.331Z,100055.22
2023-04-01T21:37:49.193Z,100045.91
2023-04-01T21:40:47.795Z,100046.03
2023-04-01T21:43:44.562Z,100052.25
2023-04-01T21:46:15.850Z,100047.53
2023-04-01T21:49:01.485Z,100039.59
2023-04-01T21:51:52.776Z,100042.72
2023-04-01T21:54:37.207Z,100048.03
2023-04-01T21:57:29.412Z,100046.84
2023-04-01T22:00:17.632Z,100048.41
2023-04-01T22:03:27.797Z,100044.34
2023-04-01T22:06:23.070Z,100043.56
2023-04-01T22:09:25.571Z,100039.03
2023-04-01T22:11:56.929Z,100039.22
2023-04-01T22:14:51.246Z,100045.84
2023-04-01T22:17:42.605Z,100052.34
2023-04-01T22:20:34.644Z,100040.59
2023-04-01T22:23:26.837Z,100039.72
2023-04-01T22:26:14.194Z,100034.50
2023-04-01T22:28:54.265Z,100023.91
2023-04-01T22:31:32.359Z,100026.03
2023-04-01T22:34:13.119Z,100032.03
2023-04-01T22:37:16.137Z,100024.00
2023-04-01T22:39:52.747Z,100027.22
2023-04-01T22:42:59.221Z,100021.69
2023-04-01T22:45:47.655Z,100025.69
2023-04-01T22:48:22.827Z,100021.84
2023-04-01T22:51:21.793Z,100020.41
2023-04-01T22:54:24.676Z,100019.03
2023-04-01T22:57:32.744Z,100018.16
2023-04-01T23:00:17.546Z,100011.13
2023-04-01T23:03:23.235Z,100009.50
2023-04-01T23:05:58.529Z,100007.03
2023-04-01T23:08:48.222Z,100016.00
2023-04-01T23:11:27.865Z,100000.69
2023-04-01T23:14:19.747Z,100017.78
2023-04-01T23:16:58.684Z,100008.34
2023-04-01T23:19:34.297Z,100006.84
2023-04-01T23:22:13.500Z,100001.28
2023-04-01T23:25:13.921Z,100000.22
2023-04-01T23:27:54.330Z,99993.06
2023-04-01T23:30:40.688Z,99994.78
2023-04-01T23:33:22.509Z,99994.34
2023-04-01T23:35:57.617Z,99995.38
2023-04-01T23:38:27.763Z,100002.44
2023-04-01T23:40:56.903Z,99999.47
2023-04-01T23:43:32.622Z,99990.28
2023-04-01T23:46:07.321Z,99990.28
2023-04-01T23:48:43.830Z,99992.03
2023-04-01T23:51:24.390Z,99995.44
2023-04-01T23:54:31.456Z,99987.25
2023-04-01T23:57:01.332Z,99984.56
2023-04-01T23:59:46.456Z,99987.13
